createdAt,value
2023-02-11T00:01:10.251Z,34.30
2023-02-11T00:03:32.021Z,36.20
2023-02-11T00:06:03.438Z,32.83
2023-02-11T00:08:25.781Z,34.47
2023-02-11T00:10:53.068Z,35.77
2023-02-11T00:13:14.709Z,30.10
2023-02-11T00:15:37.265Z,30.60
2023-02-11T00:17:58.886Z,29.93
2023-02-11T00:20:21.035Z,36.03
2023-02-11T00:22:42.812Z,31.57
2023-02-11T00:25:05.612Z,27.37
2023-02-11T00:27:27.263Z,29.47
2023-02-11T00:29:49.587Z,28.53
2023-02-11T00:32:11.267Z,33.77
2023-02-11T00:34:33.366Z,26.50
2023-02-11T00:36:57.242Z,29.35
2023-02-11T00:39:18.823Z,25.50
2023-02-11T00:41:40.621Z,29.63
2023-02-11T00:44:03.002Z,27.07
2023-02-11T00:46:25.024Z,24.60
2023-02-11T00:48:46.785Z,26.97
2023-02-11T00:51:08.998Z,21.70
2023-02-11T00:53:31.751Z,29.83
2023-02-11T00:55:53.472Z,28.37
2023-02-11T00:58:15.168Z,26.43
2023-02-11T01:00:37.258Z,27.60
2023-02-11T01:02:59.014Z,23.00
2023-02-11T01:05:21.324Z,23.80
2023-02-11T01:07:43.368Z,21.43
2023-02-11T01:10:05.538Z,22.03
2023-02-11T01:12:27.183Z,20.40
2023-02-11T01:14:48.886Z,22.17
2023-02-11T01:17:12.864Z,23.42
2023-02-11T01:19:34.470Z,23.97
2023-02-11T01:21:56.070Z,24.73
2023-02-11T01:24:17.705Z,19.60
2023-02-11T01:26:39.312Z,20.70
2023-02-11T01:29:01.194Z,28.23
2023-02-11T01:31:22.912Z,22.20
2023-02-11T01:33:44.599Z,21.83
2023-02-11T01:36:07.865Z,19.63
2023-02-11T01:38:30.058Z,19.70
2023-02-11T01:41:00.894Z,23.77
2023-02-11T01:43:28.167Z,20.60
2023-02-11T01:46:34.369Z,18.57
2023-02-11T01:49:04.418Z,18.80
2023-02-11T01:51:36.505Z,22.10
2023-02-11T01:54:18.352Z,20.53
2023-02-11T01:57:07.786Z,19.00
2023-02-11T01:59:47.951Z,19.03
2023-02-11T02:02:17.395Z,21.87
2023-02-11T02:04:55.254Z,22.37
2023-02-11T02:07:32.652Z,18.77
2023-02-11T02:10:08.152Z,23.07
2023-02-11T02:12:31.102Z,18.60
2023-02-11T02:15:09.178Z,20.03
2023-02-11T02:17:46.158Z,17.07
2023-02-11T02:20:32.506Z,19.73
2023-02-11T02:23:16.122Z,20.87
2023-02-11T02:26:27.177Z,21.93
2023-02-11T02:29:25.390Z,17.23
2023-02-11T02:32:26.763Z,20.77
2023-02-11T02:35:19.857Z,22.23
2023-02-11T02:37:59.911Z,19.30
2023-02-11T02:40:32.351Z,20.83
2023-02-11T02:42:57.650Z,21.73
2023-02-11T02:45:19.970Z,22.73
2023-02-11T02:47:41.600Z,19.47
2023-02-11T02:50:07.735Z,20.63
2023-02-11T02:52:47.343Z,22.30
2023-02-11T02:55:33.833Z,18.00
2023-02-11T02:58:35.636Z,20.27
2023-02-11T03:01:23.010Z,20.23
2023-02-11T03:04:38.580Z,19.63
2023-02-11T03:07:22.377Z,19.50
2023-02-11T03:09:55.122Z,19.40
2023-02-11T03:12:17.935Z,23.13
2023-02-11T03:14:41.790Z,19.73
2023-02-11T03:17:07.838Z,18.38
2023-02-11T03:19:37.587Z,20.30
2023-02-11T03:22:00.740Z,17.73
2023-02-11T03:24:38.304Z,19.20
2023-02-11T03:27:15.157Z,22.70
2023-02-11T03:30:14.800Z,21.33
2023-02-11T03:32:49.271Z,20.63
2023-02-11T03:35:21.520Z,20.67
2023-02-11T03:37:54.293Z,21.33
2023-02-11T03:40:24.925Z,23.93
2023-02-11T03:42:58.943Z,21.73
2023-02-11T03:45:24.759Z,15.40
2023-02-11T03:47:57.660Z,18.77
2023-02-11T03:50:22.111Z,19.77
2023-02-11T03:55:17.353Z,22.67
2023-02-11T03:57:39.297Z,19.80
2023-02-11T04:00:01.338Z,25.30
2023-02-11T04:02:38.174Z,16.03
2023-02-11T04:05:00.341Z,21.60
2023-02-11T04:07:22.207Z,25.97
2023-02-11T04:09:43.804Z,20.57
2023-02-11T04:12:05.798Z,16.70
2023-02-11T04:14:27.470Z,15.90
2023-02-11T04:16:49.027Z,22.13
2023-02-11T04:19:10.698Z,17.67
2023-02-11T04:21:32.347Z,24.33
2023-02-11T04:23:53.878Z,21.07
2023-02-11T04:26:15.530Z,24.20
2023-02-11T04:28:37.174Z,22.20
2023-02-11T04:30:58.963Z,17.73
2023-02-11T04:33:20.595Z,21.20
2023-02-11T04:35:42.315Z,22.90
2023-02-11T04:38:04.018Z,19.80
2023-02-11T04:40:25.624Z,22.70
2023-02-11T04:42:47.230Z,17.83
2023-02-11T04:45:09.360Z,16.27
2023-02-11T04:47:30.999Z,19.53
2023-02-11T04:49:52.647Z,18.17
2023-02-11T04:52:14.356Z,20.43
2023-02-11T04:54:35.968Z,18.60
2023-02-11T04:56:57.603Z,20.20
2023-02-11T04:59:19.220Z,20.80
2023-02-11T05:01:41.096Z,20.90
2023-02-11T05:04:02.843Z,23.53
2023-02-11T05:06:25.069Z,16.70
2023-02-11T05:08:46.751Z,19.77
2023-02-11T05:11:16.998Z,21.17
2023-02-11T05:13:38.695Z,21.50
2023-02-11T05:16:01.145Z,25.47
2023-02-11T05:18:24.014Z,22.60
2023-02-11T05:20:45.672Z,19.63
2023-02-11T05:23:07.777Z,20.17
2023-02-11T05:25:29.422Z,21.80
2023-02-11T05:27:51.142Z,20.70
2023-02-11T05:30:13.160Z,20.57
2023-02-11T05:32:34.779Z,21.53
2023-02-11T05:34:56.522Z,20.97
2023-02-11T05:37:18.306Z,22.23
2023-02-11T05:39:39.996Z,21.17
2023-02-11T05:42:01.674Z,20.77
2023-02-11T05:44:23.346Z,22.90
2023-02-11T05:46:45.071Z,22.90
2023-02-11T05:49:06.718Z,22.30
2023-02-11T05:51:28.433Z,26.43
2023-02-11T05:53:50.016Z,22.33
2023-02-11T05:56:12.469Z,19.70
2023-02-11T05:58:34.211Z,23.10
2023-02-11T06:00:56.528Z,26.17
2023-02-11T06:03:18.290Z,23.33
2023-02-11T06:05:42.042Z,26.17
2023-02-11T06:08:03.811Z,26.45
2023-02-11T06:10:25.960Z,29.50
2023-02-11T06:12:47.761Z,25.03
2023-02-11T06:15:09.628Z,25.93
2023-02-11T06:17:34.072Z,27.70
2023-02-11T06:22:17.447Z,25.93
2023-02-11T06:24:59.812Z,30.43
2023-02-11T06:27:21.040Z,26.13
2023-02-11T06:29:42.672Z,25.47
2023-02-11T06:32:04.522Z,27.37
2023-02-11T06:34:27.356Z,31.10
2023-02-11T06:36:48.976Z,27.87
2023-02-11T06:39:13.087Z,22.73
2023-02-11T06:41:34.842Z,27.83
2023-02-11T06:43:56.554Z,28.50
2023-02-11T06:46:18.255Z,26.93
2023-02-11T06:48:41.661Z,27.30
2023-02-11T06:51:09.529Z,32.50
2023-02-11T06:53:35.480Z,34.37
2023-02-11T06:56:01.705Z,27.00
2023-02-11T06:58:23.323Z,33.33
2023-02-11T07:00:45.034Z,32.40
2023-02-11T07:03:06.714Z,28.83
2023-02-11T07:05:28.495Z,31.20
2023-02-11T07:07:50.148Z,34.03
2023-02-11T07:10:11.850Z,30.47
2023-02-11T07:12:33.456Z,30.63
2023-02-11T07:14:57.016Z,30.57
2023-02-11T07:17:18.624Z,38.70
2023-02-11T07:19:40.266Z,44.53
2023-02-11T07:22:01.885Z,28.83
2023-02-11T07:24:23.512Z,32.43
2023-02-11T07:26:45.240Z,31.80
2023-02-11T07:29:07.152Z,33.27
2023-02-11T07:31:30.845Z,37.90
2023-02-11T07:33:56.091Z,35.45
2023-02-11T07:36:17.811Z,30.97
2023-02-11T07:38:40.355Z,34.43
2023-02-11T07:41:07.894Z,34.47
2023-02-11T07:43:31.007Z,37.37
2023-02-11T07:45:52.965Z,38.70
2023-02-11T07:48:14.714Z,38.73
2023-02-11T07:50:36.373Z,34.70
2023-02-11T07:52:57.941Z,34.27
2023-02-11T07:55:19.582Z,37.20
2023-02-11T07:57:41.288Z,41.77
2023-02-11T08:00:05.520Z,36.37
2023-02-11T08:02:32.322Z,37.07
2023-02-11T08:04:53.935Z,36.40
2023-02-11T08:07:18.048Z,43.27
2023-02-11T08:09:39.629Z,37.55
2023-02-11T08:12:01.580Z,34.27
2023-02-11T08:14:25.143Z,40.03
2023-02-11T08:16:46.798Z,34.58
2023-02-11T08:19:14.730Z,40.20
2023-02-11T08:21:36.356Z,43.33
2023-02-11T08:23:58.089Z,47.33
2023-02-11T08:26:29.802Z,39.63
2023-02-11T08:28:54.282Z,38.80
2023-02-11T08:33:41.673Z,37.78
2023-02-11T08:36:14.166Z,41.47
2023-02-11T08:38:35.873Z,43.07
2023-02-11T08:41:00.764Z,41.37
2023-02-11T08:43:23.599Z,41.40
2023-02-11T08:45:45.288Z,42.87
2023-02-11T08:48:06.966Z,42.93
2023-02-11T08:50:28.565Z,47.63
2023-02-11T08:52:51.845Z,43.63
2023-02-11T08:55:13.559Z,39.73
2023-02-11T08:57:35.132Z,42.43
2023-02-11T08:59:56.856Z,45.33
2023-02-11T09:02:18.664Z,43.87
2023-02-11T09:04:41.299Z,43.37
2023-02-11T09:07:04.755Z,39.50
2023-02-11T09:09:26.429Z,41.88
2023-02-11T09:11:48.270Z,38.33
2023-02-11T09:14:22.074Z,43.53
2023-02-11T09:16:44.259Z,44.87
2023-02-11T09:19:06.048Z,46.30
2023-02-11T09:21:28.816Z,46.67
2023-02-11T09:23:50.590Z,45.17
2023-02-11T09:26:31.975Z,43.10
2023-02-11T09:28:53.702Z,44.87
2023-02-11T09:31:23.606Z,45.17
2023-02-11T09:33:48.714Z,50.30
2023-02-11T09:36:10.334Z,47.97
2023-02-11T09:38:33.012Z,44.30
2023-02-11T09:40:54.838Z,53.00
2023-02-11T09:43:22.510Z,49.53
2023-02-11T09:45:44.154Z,52.10
2023-02-11T09:48:17.471Z,44.90
2023-02-11T09:50:44.262Z,46.30
2023-02-11T09:53:23.986Z,48.53
2023-02-11T09:55:55.635Z,47.03
2023-02-11T09:58:27.484Z,52.57
2023-02-11T10:01:16.451Z,49.83
2023-02-11T10:04:07.244Z,44.17
2023-02-11T10:06:45.451Z,48.07
2023-02-11T10:09:50.607Z,43.77
2023-02-11T10:12:35.548Z,50.08
2023-02-11T10:15:21.630Z,46.47
2023-02-11T10:18:14.359Z,44.27
2023-02-11T10:21:05.022Z,49.07
2023-02-11T10:23:33.441Z,43.97
2023-02-11T10:25:59.037Z,48.60
2023-02-11T10:28:28.947Z,44.20
2023-02-11T10:31:02.965Z,39.57
2023-02-11T10:33:55.192Z,45.80
2023-02-11T10:36:19.441Z,44.40
2023-02-11T10:38:41.080Z,52.08
2023-02-11T10:41:03.170Z,45.60
2023-02-11T10:43:30.719Z,45.43
2023-02-11T10:45:56.086Z,45.17
2023-02-11T10:48:52.868Z,43.63
2023-02-11T10:51:28.546Z,43.77
2023-02-11T10:54:21.157Z,41.87
2023-02-11T10:56:50.833Z,44.83
2023-02-11T10:59:30.442Z,55.17
2023-02-11T11:02:21.296Z,44.90
2023-02-11T11:04:45.169Z,44.97
2023-02-11T11:07:33.163Z,48.28
2023-02-11T11:10:06.779Z,42.10
2023-02-11T11:12:44.494Z,44.83
2023-02-11T11:15:10.711Z,50.10
2023-02-11T11:17:32.342Z,43.80
2023-02-11T11:19:53.901Z,47.00
2023-02-11T11:22:22.934Z,48.10
2023-02-11T11:24:46.681Z,47.80
2023-02-11T11:27:19.545Z,46.53
2023-02-11T11:29:55.373Z,44.37
2023-02-11T11:32:27.945Z,44.60
2023-02-11T11:34:56.660Z,42.23
2023-02-11T11:37:30.696Z,44.97
2023-02-11T11:40:22.657Z,43.40
2023-02-11T11:42:44.478Z,44.10
2023-02-11T11:45:15.222Z,39.87
2023-02-11T11:48:00.409Z,45.27
2023-02-11T11:50:41.676Z,39.60
2023-02-11T11:53:29.571Z,44.10
2023-02-11T11:56:03.793Z,42.40
2023-02-11T11:58:25.554Z,39.95
2023-02-11T12:01:15.082Z,45.23
2023-02-11T12:04:05.497Z,43.40
2023-02-11T12:07:03.779Z,43.73
2023-02-11T12:09:58.916Z,42.93
2023-02-11T12:12:43.779Z,44.55
2023-02-11T12:15:58.982Z,39.90
2023-02-11T12:18:55.271Z,37.77
2023-02-11T12:21:53.941Z,33.83
2023-02-11T12:24:29.534Z,33.17
2023-02-11T12:27:15.731Z,34.23
2023-02-11T12:30:19.025Z,35.17
2023-02-11T12:33:23.011Z,34.83
2023-02-11T12:35:59.233Z,35.13
2023-02-11T12:38:54.761Z,34.37
2023-02-11T12:42:16.123Z,33.67
2023-02-11T12:45:18.590Z,28.03
2023-02-11T12:48:13.041Z,26.77
2023-02-11T12:51:10.244Z,27.47
2023-02-11T12:53:37.920Z,25.87
2023-02-11T12:56:12.620Z,27.10
2023-02-11T12:58:44.904Z,26.35
2023-02-11T13:01:26.263Z,26.67
2023-02-11T13:04:06.639Z,27.57
2023-02-11T13:06:41.818Z,27.03
2023-02-11T13:09:16.666Z,29.30
2023-02-11T13:14:17.273Z,28.13
2023-02-11T13:16:46.289Z,28.00
2023-02-11T13:19:14.053Z,24.93
2023-02-11T13:22:14.648Z,22.70
2023-02-11T13:24:49.254Z,20.60
2023-02-11T13:27:36.896Z,23.38
2023-02-11T13:30:40.722Z,19.17
2023-02-11T13:33:17.045Z,23.63
2023-02-11T13:35:43.979Z,23.83
2023-02-11T13:38:25.456Z,19.40
2023-02-11T13:41:15.192Z,24.53
2023-02-11T13:43:37.168Z,26.60
2023-02-11T13:46:12.827Z,21.60
2023-02-11T13:48:45.460Z,24.73
2023-02-11T13:51:12.917Z,25.70
2023-02-11T13:53:56.437Z,22.67
2023-02-11T13:56:36.085Z,25.63
2023-02-11T13:59:02.547Z,24.33
2023-02-11T14:02:12.532Z,20.57
2023-02-11T14:04:53.263Z,25.80
2023-02-11T14:07:45.691Z,23.17
2023-02-11T14:10:42.110Z,24.23
2023-02-11T14:13:24.499Z,19.13
2023-02-11T14:15:46.600Z,25.23
2023-02-11T14:18:36.318Z,22.00
2023-02-11T14:21:23.758Z,22.13
2023-02-11T14:23:46.923Z,19.00
2023-02-11T14:26:20.866Z,28.87
2023-02-11T14:28:46.697Z,19.63
2023-02-11T14:31:18.135Z,19.73
2023-02-11T14:34:07.897Z,20.70
2023-02-11T14:37:00.170Z,17.07
2023-02-11T14:39:40.372Z,22.47
2023-02-11T14:42:04.347Z,27.23
2023-02-11T14:44:31.369Z,29.67
2023-02-11T14:46:55.139Z,27.87
2023-02-11T14:49:29.245Z,35.03
2023-02-11T14:51:56.167Z,28.83
2023-02-11T14:54:25.226Z,20.33
2023-02-11T14:56:46.947Z,22.00
2023-02-11T14:59:22.097Z,24.43
2023-02-11T15:01:50.708Z,24.80
2023-02-11T15:04:32.979Z,22.30
2023-02-11T15:06:59.457Z,22.07
2023-02-11T15:09:48.195Z,20.70
2023-02-11T15:12:28.439Z,21.83
2023-02-11T15:14:55.250Z,21.20
2023-02-11T15:17:23.625Z,19.30
2023-02-11T15:19:53.149Z,23.03
2023-02-11T15:22:22.409Z,20.73
2023-02-11T15:24:44.700Z,20.13
2023-02-11T15:27:11.785Z,24.43
2023-02-11T15:29:42.830Z,18.37
2023-02-11T15:32:17.592Z,25.73
2023-02-11T15:34:40.145Z,24.97
2023-02-11T15:37:04.404Z,22.87
2023-02-11T15:39:36.871Z,27.50
2023-02-11T15:42:25.134Z,31.73
2023-02-11T15:44:56.278Z,30.97
2023-02-11T15:47:22.392Z,24.57
2023-02-11T15:49:46.803Z,24.07
2023-02-11T15:52:08.621Z,31.33
2023-02-11T15:54:32.159Z,42.83
2023-02-11T15:57:02.495Z,40.97
2023-02-11T15:59:49.020Z,25.40
2023-02-11T16:02:31.657Z,24.87
2023-02-11T16:05:09.165Z,31.63
2023-02-11T16:07:49.710Z,27.20
2023-02-11T16:10:30.741Z,27.73
2023-02-11T16:13:13.694Z,29.30
2023-02-11T16:15:38.119Z,34.10
2023-02-11T16:20:23.752Z,34.37
2023-02-11T16:22:46.844Z,30.67
2023-02-11T16:25:20.613Z,29.67
2023-02-11T16:27:43.158Z,27.07
2023-02-11T16:30:07.102Z,26.53
2023-02-11T16:32:30.449Z,26.33
2023-02-11T16:34:57.825Z,27.40
2023-02-11T16:37:19.578Z,27.83
2023-02-11T16:39:41.261Z,28.80
2023-02-11T16:42:06.421Z,29.00
2023-02-11T16:44:29.772Z,30.53
2023-02-11T16:46:52.769Z,32.47
2023-02-11T16:49:27.745Z,29.60
2023-02-11T16:54:16.272Z,33.23
2023-02-11T16:56:37.858Z,34.20
2023-02-11T16:58:59.550Z,30.90
2023-02-11T17:01:21.333Z,28.37
2023-02-11T17:03:43.824Z,27.57
2023-02-11T17:06:10.411Z,32.10
2023-02-11T17:08:32.014Z,30.93
2023-02-11T17:10:53.938Z,29.77
2023-02-11T17:13:15.853Z,27.27
2023-02-11T17:15:37.493Z,29.10
2023-02-11T17:17:59.361Z,26.07
2023-02-11T17:20:21.265Z,27.60
2023-02-11T17:22:42.942Z,26.03
2023-02-11T17:25:04.768Z,25.17
2023-02-11T17:27:26.426Z,30.23
2023-02-11T17:29:48.012Z,26.20
2023-02-11T17:32:09.752Z,31.03
2023-02-11T17:34:32.381Z,31.03
2023-02-11T17:36:54.092Z,27.00
2023-02-11T17:39:16.323Z,26.17
2023-02-11T17:41:40.090Z,26.20
2023-02-11T17:44:01.752Z,26.38
2023-02-11T17:46:23.668Z,26.13
2023-02-11T17:48:45.734Z,30.47
2023-02-11T17:51:25.813Z,31.10
2023-02-11T17:53:47.621Z,26.67
2023-02-11T17:56:10.251Z,28.40
2023-02-11T17:58:32.313Z,35.30
2023-02-11T18:00:59.049Z,32.43
2023-02-11T18:03:20.669Z,33.03
2023-02-11T18:05:42.392Z,36.13
2023-02-11T18:08:06.508Z,35.53
2023-02-11T18:10:28.486Z,38.95
2023-02-11T18:12:50.150Z,34.90
2023-02-11T18:15:12.332Z,34.73
2023-02-11T18:17:33.991Z,32.53
2023-02-11T18:19:57.496Z,35.63
2023-02-11T18:22:19.117Z,39.90
2023-02-11T18:24:41.986Z,45.80
2023-02-11T18:27:03.652Z,44.20
2023-02-11T18:29:26.183Z,45.90
2023-02-11T18:31:47.848Z,37.50
2023-02-11T18:34:10.708Z,34.20
2023-02-11T18:36:33.809Z,40.20
2023-02-11T18:38:57.034Z,43.23
2023-02-11T18:41:18.688Z,44.60
2023-02-11T18:43:40.778Z,38.00
2023-02-11T18:46:09.369Z,39.00
2023-02-11T18:48:30.969Z,37.20
2023-02-11T18:50:54.353Z,29.23
2023-02-11T18:53:16.004Z,53.20
2023-02-11T18:55:43.047Z,43.87
2023-02-11T18:58:04.632Z,32.87
2023-02-11T19:00:27.980Z,35.30
2023-02-11T19:02:49.675Z,34.53
2023-02-11T19:05:11.810Z,33.63
2023-02-11T19:07:33.600Z,30.03
2023-02-11T19:09:55.193Z,31.83
2023-02-11T19:12:16.947Z,29.90
2023-02-11T19:14:38.790Z,28.80
2023-02-11T19:17:04.913Z,32.03
2023-02-11T19:19:30.534Z,30.30
2023-02-11T19:21:52.367Z,33.87
2023-02-11T19:24:18.788Z,30.60
2023-02-11T19:26:40.366Z,30.10
2023-02-11T19:29:02.413Z,29.97
2023-02-11T19:31:24.481Z,31.13
2023-02-11T19:33:46.959Z,32.57
2023-02-11T19:36:16.112Z,29.43
2023-02-11T19:38:38.428Z,32.30
2023-02-11T19:41:00.170Z,31.67
2023-02-11T19:43:22.544Z,30.47
2023-02-11T19:45:44.206Z,27.83
2023-02-11T19:48:05.981Z,30.90
2023-02-11T19:50:27.604Z,31.23
2023-02-11T19:52:49.311Z,34.70
2023-02-11T19:55:10.970Z,34.53
2023-02-11T19:57:32.739Z,34.60
2023-02-11T19:59:55.032Z,36.30
2023-02-11T20:02:16.708Z,35.70
2023-02-11T20:04:39.458Z,34.47
2023-02-11T20:07:01.177Z,35.47
2023-02-11T20:09:22.887Z,37.63
2023-02-11T20:11:44.830Z,38.67
2023-02-11T20:14:06.886Z,37.87
2023-02-11T20:16:47.024Z,39.87
2023-02-11T20:19:14.814Z,36.13
2023-02-11T20:21:36.409Z,41.53
2023-02-11T20:23:59.373Z,36.70
2023-02-11T20:26:28.483Z,38.10
2023-02-11T20:28:52.680Z,40.87
2023-02-11T20:31:16.306Z,41.22
2023-02-11T20:33:39.158Z,31.83
2023-02-11T20:36:05.022Z,35.07
2023-02-11T20:38:27.201Z,33.93
2023-02-11T20:40:49.373Z,34.73
2023-02-11T20:43:10.990Z,31.50
2023-02-11T20:45:35.309Z,34.37
2023-02-11T20:47:56.986Z,37.00
2023-02-11T20:50:19.507Z,39.70
2023-02-11T20:52:41.223Z,37.67
2023-02-11T20:55:02.854Z,36.10
2023-02-11T20:57:24.473Z,36.57
2023-02-11T20:59:46.208Z,34.93
2023-02-11T21:02:10.305Z,32.20
2023-02-11T21:04:32.655Z,31.77
2023-02-11T21:06:58.972Z,32.00
2023-02-11T21:09:29.112Z,32.90
2023-02-11T21:11:53.095Z,31.57
2023-02-11T21:14:15.788Z,31.90
2023-02-11T21:16:38.494Z,35.20
2023-02-11T21:19:00.651Z,33.67
2023-02-11T21:21:23.087Z,33.90
2023-02-11T21:23:45.554Z,33.27
2023-02-11T21:26:08.857Z,30.70
2023-02-11T21:28:30.577Z,36.80
2023-02-11T21:30:57.149Z,35.83
2023-02-11T21:33:19.152Z,35.27
2023-02-11T21:35:40.754Z,37.03
2023-02-11T21:38:03.059Z,33.97
2023-02-11T21:40:27.427Z,35.33
2023-02-11T21:42:49.061Z,31.25
2023-02-11T21:45:10.762Z,36.87
2023-02-11T21:47:32.707Z,33.23
2023-02-11T21:49:54.364Z,33.50
2023-02-11T21:52:16.080Z,35.47
2023-02-11T21:54:37.654Z,33.47
2023-02-11T21:57:02.936Z,35.63
2023-02-11T21:59:24.559Z,33.73
2023-02-11T22:01:46.562Z,32.33
2023-02-11T22:04:09.488Z,43.03
2023-02-11T22:06:34.659Z,39.10
2023-02-11T22:08:57.534Z,35.87
2023-02-11T22:11:20.248Z,33.83
2023-02-11T22:13:42.772Z,34.30
2023-02-11T22:16:09.498Z,31.73
2023-02-11T22:18:32.217Z,37.17
2023-02-11T22:21:11.908Z,33.90
2023-02-11T22:23:34.294Z,31.73
2023-02-11T22:25:57.285Z,33.10
2023-02-11T22:28:19.000Z,36.37
2023-02-11T22:30:40.649Z,34.53
2023-02-11T22:33:04.085Z,29.33
2023-02-11T22:35:25.754Z,30.57
2023-02-11T22:37:47.351Z,30.80
2023-02-11T22:40:09.485Z,31.53
2023-02-11T22:42:31.077Z,30.57
2023-02-11T22:44:52.748Z,30.77
2023-02-11T22:47:14.303Z,31.83
2023-02-11T22:49:36.015Z,36.67
2023-02-11T22:51:57.793Z,34.53
2023-02-11T22:54:19.433Z,33.67
2023-02-11T22:56:41.559Z,37.23
2023-02-11T22:59:08.578Z,35.33
2023-02-11T23:01:31.669Z,33.73
2023-02-11T23:03:53.438Z,33.80
2023-02-11T23:06:15.640Z,33.10
2023-02-11T23:08:39.975Z,32.00
2023-02-11T23:11:13.043Z,31.02
2023-02-11T23:13:38.349Z,33.83
2023-02-11T23:16:07.549Z,35.70
2023-02-11T23:18:29.205Z,30.37
2023-02-11T23:20:50.840Z,29.83
2023-02-11T23:23:12.614Z,33.93
2023-02-11T23:25:34.639Z,31.03
2023-02-11T23:27:56.354Z,30.17
2023-02-11T23:30:18.701Z,26.73
2023-02-11T23:32:40.835Z,28.23
2023-02-11T23:35:02.470Z,28.83
2023-02-11T23:37:24.148Z,27.50
2023-02-11T23:39:45.797Z,27.37
2023-02-11T23:42:07.443Z,27.23
2023-02-11T23:44:29.181Z,28.30
2023-02-11T23:46:50.894Z,28.90
2023-02-11T23:49:13.064Z,27.03
2023-02-11T23:51:34.756Z,28.93
2023-02-11T23:53:56.495Z,27.07
2023-02-11T23:56:27.683Z,25.43
2023-02-11T23:58:51.385Z,25.97
